sensor_id;sensor_type;location;lat;lon;timestamp;temperature;humidity
23116;DHT22;11727;52.134;5.052;2023-10-08T00:00:32;18.60;99.90
23116;DHT22;11727;52.134;5.052;2023-10-08T00:03:15;18.60;99.90
23116;DHT22;11727;52.134;5.052;2023-10-08T00:05:42;18.70;99.90
23116;DHT22;11727;52.134;5.052;2023-10-08T00:08:09;18.60;99.90
23116;DHT22;11727;52.134;5.052;2023-10-08T00:10:36;18.60;99.90
23116;DHT22;11727;52.134;5.052;2023-10-08T00:13:04;18.60;99.90
23116;DHT22;11727;52.134;5.052;2023-10-08T00:15:33;18.70;99.90
23116;DHT22;11727;52.134;5.052;2023-10-08T00:17:59;18.70;99.90
23116;DHT22;11727;52.134;5.052;2023-10-08T00:20:26;18.70;99.90
23116;DHT22;11727;52.134;5.052;2023-10-08T00:23:01;18.70;99.90
23116;DHT22;11727;52.134;5.052;2023-10-08T00:25:28;18.70;99.90
23116;DHT22;11727;52.134;5.052;2023-10-08T00:27:53;18.70;99.90
23116;DHT22;11727;52.134;5.052;2023-10-08T00:30:19;18.70;99.90
23116;DHT22;11727;52.134;5.052;2023-10-08T00:32:45;18.70;99.90
23116;DHT22;11727;52.134;5.052;2023-10-08T00:35:10;18.80;99.90
23116;DHT22;11727;52.134;5.052;2023-10-08T00:37:39;18.80;99.90
23116;DHT22;11727;52.134;5.052;2023-10-08T00:40:08;18.80;99.90
23116;DHT22;11727;52.134;5.052;2023-10-08T00:42:37;18.80;99.90
23116;DHT22;11727;52.134;5.052;2023-10-08T00:45:10;18.80;99.90
23116;DHT22;11727;52.134;5.052;2023-10-08T00:47:39;18.80;99.90
23116;DHT22;11727;52.134;5.052;2023-10-08T00:50:11;18.70;99.90
23116;DHT22;11727;52.134;5.052;2023-10-08T00:52:47;18.80;99.90
23116;DHT22;11727;52.134;5.052;2023-10-08T00:55:25;18.80;99.90
23116;DHT22;11727;52.134;5.052;2023-10-08T00:57:57;18.80;99.90
23116;DHT22;11727;52.134;5.052;2023-10-08T01:00:24;18.70;99.90
23116;DHT22;11727;52.134;5.052;2023-10-08T01:02:58;18.80;99.90
23116;DHT22;11727;52.134;5.052;2023-10-08T01:05:27;18.80;99.90
23116;DHT22;11727;52.134;5.052;2023-10-08T01:08:09;18.80;99.90
23116;DHT22;11727;52.134;5.052;2023-10-08T01:10:39;18.80;99.90
23116;DHT22;11727;52.134;5.052;2023-10-08T01:13:08;18.80;99.90
23116;DHT22;11727;52.134;5.052;2023-10-08T01:15:40;18.70;99.90
23116;DHT22;11727;52.134;5.052;2023-10-08T01:18:07;18.70;99.90
23116;DHT22;11727;52.134;5.052;2023-10-08T01:20:40;18.80;99.90
23116;DHT22;11727;52.134;5.052;2023-10-08T01:23:15;18.80;99.90
23116;DHT22;11727;52.134;5.052;2023-10-08T01:25:48;18.70;99.90
23116;DHT22;11727;52.134;5.052;2023-10-08T01:28:36;18.70;99.90
23116;DHT22;11727;52.134;5.052;2023-10-08T01:31:01;18.70;99.90
23116;DHT22;11727;52.134;5.052;2023-10-08T01:33:29;18.70;99.90
23116;DHT22;11727;52.134;5.052;2023-10-08T01:35:57;18.60;99.90
23116;DHT22;11727;52.134;5.052;2023-10-08T01:38:29;18.70;99.90
23116;DHT22;11727;52.134;5.052;2023-10-08T01:40:56;18.60;99.90
23116;DHT22;11727;52.134;5.052;2023-10-08T01:43:22;18.60;99.90
23116;DHT22;11727;52.134;5.052;2023-10-08T01:45:47;18.60;99.90
23116;DHT22;11727;52.134;5.052;2023-10-08T01:48:17;18.60;99.90
23116;DHT22;11727;52.134;5.052;2023-10-08T01:50:47;18.60;99.90
23116;DHT22;11727;52.134;5.052;2023-10-08T01:53:14;18.60;99.90
23116;DHT22;11727;52.134;5.052;2023-10-08T01:55:41;18.60;99.90
23116;DHT22;11727;52.134;5.052;2023-10-08T01:58:18;18.60;99.90
23116;DHT22;11727;52.134;5.052;2023-10-08T02:00:47;18.60;99.90
23116;DHT22;11727;52.134;5.052;2023-10-08T02:03:14;18.60;99.90
23116;DHT22;11727;52.134;5.052;2023-10-08T02:05:48;18.60;99.90
23116;DHT22;11727;52.134;5.052;2023-10-08T02:08:14;18.60;99.90
23116;DHT22;11727;52.134;5.052;2023-10-08T02:10:42;18.60;99.90
23116;DHT22;11727;52.134;5.052;2023-10-08T02:13:10;18.50;99.90
23116;DHT22;11727;52.134;5.052;2023-10-08T02:15:45;18.50;99.90
23116;DHT22;11727;52.134;5.052;2023-10-08T02:18:13;18.50;99.90
23116;DHT22;11727;52.134;5.052;2023-10-08T02:20:42;18.60;99.90
23116;DHT22;11727;52.134;5.052;2023-10-08T02:23:08;18.60;99.90
23116;DHT22;11727;52.134;5.052;2023-10-08T02:25:37;18.50;99.90
23116;DHT22;11727;52.134;5.052;2023-10-08T02:28:08;18.50;99.90
23116;DHT22;11727;52.134;5.052;2023-10-08T02:30:35;18.50;99.90
23116;DHT22;11727;52.134;5.052;2023-10-08T02:33:02;18.50;99.90
23116;DHT22;11727;52.134;5.052;2023-10-08T02:35:28;18.50;99.90
23116;DHT22;11727;52.134;5.052;2023-10-08T02:37:53;18.50;99.90
23116;DHT22;11727;52.134;5.052;2023-10-08T02:40:20;18.50;99.90
23116;DHT22;11727;52.134;5.052;2023-10-08T02:42:54;18.50;99.90
23116;DHT22;11727;52.134;5.052;2023-10-08T02:45:27;18.50;99.90
23116;DHT22;11727;52.134;5.052;2023-10-08T02:47:56;18.50;99.90
23116;DHT22;11727;52.134;5.052;2023-10-08T02:50:23;18.50;99.90
23116;DHT22;11727;52.134;5.052;2023-10-08T02:52:51;18.50;99.90
23116;DHT22;11727;52.134;5.052;2023-10-08T02:55:17;18.50;99.90
23116;DHT22;11727;52.134;5.052;2023-10-08T02:58:01;18.50;99.90
23116;DHT22;11727;52.134;5.052;2023-10-08T03:00:30;18.50;99.90
23116;DHT22;11727;52.134;5.052;2023-10-08T03:03:00;18.50;99.90
23116;DHT22;11727;52.134;5.052;2023-10-08T03:05:32;18.40;99.90
23116;DHT22;11727;52.134;5.052;2023-10-08T03:08:02;18.40;99.90
23116;DHT22;11727;52.134;5.052;2023-10-08T03:10:27;18.40;99.90
23116;DHT22;11727;52.134;5.052;2023-10-08T03:12:59;18.40;99.90
23116;DHT22;11727;52.134;5.052;2023-10-08T03:15:31;18.40;99.90
23116;DHT22;11727;52.134;5.052;2023-10-08T03:18:12;18.30;99.90
23116;DHT22;11727;52.134;5.052;2023-10-08T03:20:41;18.30;99.90
23116;DHT22;11727;52.134;5.052;2023-10-08T03:23:15;18.30;99.90
23116;DHT22;11727;52.134;5.052;2023-10-08T03:25:58;18.30;99.90
23116;DHT22;11727;52.134;5.052;2023-10-08T03:28:29;18.30;99.90
23116;DHT22;11727;52.134;5.052;2023-10-08T03:30:55;18.30;99.90
23116;DHT22;11727;52.134;5.052;2023-10-08T03:33:35;18.30;99.90
23116;DHT22;11727;52.134;5.052;2023-10-08T03:36:04;18.20;99.90
23116;DHT22;11727;52.134;5.052;2023-10-08T03:38:52;18.20;99.90
23116;DHT22;11727;52.134;5.052;2023-10-08T03:41:25;18.10;99.90
23116;DHT22;11727;52.134;5.052;2023-10-08T03:43:55;18.20;99.90
23116;DHT22;11727;52.134;5.052;2023-10-08T03:46:29;18.20;99.90
23116;DHT22;11727;52.134;5.052;2023-10-08T03:48:54;18.20;99.90
23116;DHT22;11727;52.134;5.052;2023-10-08T03:51:23;18.20;99.90
23116;DHT22;11727;52.134;5.052;2023-10-08T03:53:53;18.10;99.90
23116;DHT22;11727;52.134;5.052;2023-10-08T03:56:32;18.10;99.90
23116;DHT22;11727;52.134;5.052;2023-10-08T03:59:02;18.10;99.90
23116;DHT22;11727;52.134;5.052;2023-10-08T04:01:48;18.10;99.90
23116;DHT22;11727;52.134;5.052;2023-10-08T04:04:20;18.00;99.90
23116;DHT22;11727;52.134;5.052;2023-10-08T04:06:47;18.00;99.90
23116;DHT22;11727;52.134;5.052;2023-10-08T04:09:17;17.90;99.90
23116;DHT22;11727;52.134;5.052;2023-10-08T04:11:46;17.90;99.90
23116;DHT22;11727;52.134;5.052;2023-10-08T04:14:24;17.90;99.90
23116;DHT22;11727;52.134;5.052;2023-10-08T04:16:51;17.90;99.90
23116;DHT22;11727;52.134;5.052;2023-10-08T04:19:20;17.80;99.90
23116;DHT22;11727;52.134;5.052;2023-10-08T04:21:50;17.70;99.90
23116;DHT22;11727;52.134;5.052;2023-10-08T04:24:21;17.70;99.90
23116;DHT22;11727;52.134;5.052;2023-10-08T04:26:53;17.60;99.90
23116;DHT22;11727;52.134;5.052;2023-10-08T04:29:22;17.70;99.90
23116;DHT22;11727;52.134;5.052;2023-10-08T04:31:48;17.60;99.90
23116;DHT22;11727;52.134;5.052;2023-10-08T04:34:26;17.60;99.90
23116;DHT22;11727;52.134;5.052;2023-10-08T04:36:53;17.60;99.90
23116;DHT22;11727;52.134;5.052;2023-10-08T04:39:26;17.50;99.90
23116;DHT22;11727;52.134;5.052;2023-10-08T04:42:02;17.50;99.90
23116;DHT22;11727;52.134;5.052;2023-10-08T04:44:38;17.50;99.90
23116;DHT22;11727;52.134;5.052;2023-10-08T04:47:06;17.40;99.90
23116;DHT22;11727;52.134;5.052;2023-10-08T04:49:32;17.40;99.90
23116;DHT22;11727;52.134;5.052;2023-10-08T04:52:04;17.40;99.90
23116;DHT22;11727;52.134;5.052;2023-10-08T04:54:40;17.40;99.90
23116;DHT22;11727;52.134;5.052;2023-10-08T04:57:07;17.40;99.90
23116;DHT22;11727;52.134;5.052;2023-10-08T04:59:41;17.30;99.90
23116;DHT22;11727;52.134;5.052;2023-10-08T05:02:07;17.20;99.90
23116;DHT22;11727;52.134;5.052;2023-10-08T05:04:51;17.20;99.90
23116;DHT22;11727;52.134;5.052;2023-10-08T05:07:21;17.10;99.90
23116;DHT22;11727;52.134;5.052;2023-10-08T05:09:50;17.10;99.90
23116;DHT22;11727;52.134;5.052;2023-10-08T05:12:37;17.00;99.90
23116;DHT22;11727;52.134;5.052;2023-10-08T05:15:07;16.90;99.90
23116;DHT22;11727;52.134;5.052;2023-10-08T05:17:43;16.80;99.90
23116;DHT22;11727;52.134;5.052;2023-10-08T05:20:18;16.80;99.90
23116;DHT22;11727;52.134;5.052;2023-10-08T05:23:10;16.70;99.90
23116;DHT22;11727;52.134;5.052;2023-10-08T05:25:53;16.60;99.90
23116;DHT22;11727;52.134;5.052;2023-10-08T05:28:38;16.50;99.90
23116;DHT22;11727;52.134;5.052;2023-10-08T05:31:33;16.40;99.90
23116;DHT22;11727;52.134;5.052;2023-10-08T05:34:13;16.30;99.90
23116;DHT22;11727;52.134;5.052;2023-10-08T05:37:08;16.20;99.90
23116;DHT22;11727;52.134;5.052;2023-10-08T05:39:33;16.10;99.90
23116;DHT22;11727;52.134;5.052;2023-10-08T05:42:04;16.00;99.90
23116;DHT22;11727;52.134;5.052;2023-10-08T05:44:44;16.00;99.90
23116;DHT22;11727;52.134;5.052;2023-10-08T05:47:29;15.90;99.90
23116;DHT22;11727;52.134;5.052;2023-10-08T05:49:58;15.80;99.90
23116;DHT22;11727;52.134;5.052;2023-10-08T05:52:48;15.80;99.90
23116;DHT22;11727;52.134;5.052;2023-10-08T05:55:27;15.70;99.90
23116;DHT22;11727;52.134;5.052;2023-10-08T05:58:04;15.70;99.90
23116;DHT22;11727;52.134;5.052;2023-10-08T06:00:50;15.60;99.90
23116;DHT22;11727;52.134;5.052;2023-10-08T06:03:16;15.50;99.90
23116;DHT22;11727;52.134;5.052;2023-10-08T06:06:04;15.40;99.90
23116;DHT22;11727;52.134;5.052;2023-10-08T06:08:42;15.40;99.90
23116;DHT22;11727;52.134;5.052;2023-10-08T06:11:16;15.40;99.90
23116;DHT22;11727;52.134;5.052;2023-10-08T06:14:00;15.40;99.90
23116;DHT22;11727;52.134;5.052;2023-10-08T06:16:26;15.30;99.90
23116;DHT22;11727;52.134;5.052;2023-10-08T06:19:08;15.30;99.90
23116;DHT22;11727;52.134;5.052;2023-10-08T06:21:36;15.30;99.90
23116;DHT22;11727;52.134;5.052;2023-10-08T06:24:04;15.20;99.90
23116;DHT22;11727;52.134;5.052;2023-10-08T06:26:37;15.20;99.90
23116;DHT22;11727;52.134;5.052;2023-10-08T06:29:14;15.10;99.90
23116;DHT22;11727;52.134;5.052;2023-10-08T06:31:54;15.10;99.90
23116;DHT22;11727;52.134;5.052;2023-10-08T06:34:21;15.10;99.90
23116;DHT22;11727;52.134;5.052;2023-10-08T06:36:49;15.10;99.90
23116;DHT22;11727;52.134;5.052;2023-10-08T06:39:20;15.10;99.90
23116;DHT22;11727;52.134;5.052;2023-10-08T06:41:52;15.10;99.90
23116;DHT22;11727;52.134;5.052;2023-10-08T06:44:17;15.10;99.90
23116;DHT22;11727;52.134;5.052;2023-10-08T06:46:43;15.00;99.90
23116;DHT22;11727;52.134;5.052;2023-10-08T06:49:09;14.90;99.90
23116;DHT22;11727;52.134;5.052;2023-10-08T06:51:39;14.90;99.90
23116;DHT22;11727;52.134;5.052;2023-10-08T06:54:05;14.90;99.90
23116;DHT22;11727;52.134;5.052;2023-10-08T06:56:35;14.80;99.90
23116;DHT22;11727;52.134;5.052;2023-10-08T06:59:00;14.80;99.90
23116;DHT22;11727;52.134;5.052;2023-10-08T07:01:27;14.80;99.90
23116;DHT22;11727;52.134;5.052;2023-10-08T07:04:04;14.80;99.90
23116;DHT22;11727;52.134;5.052;2023-10-08T07:06:34;14.80;99.90
23116;DHT22;11727;52.134;5.052;2023-10-08T07:09:02;14.80;99.90
23116;DHT22;11727;52.134;5.052;2023-10-08T07:11:32;14.80;99.90
23116;DHT22;11727;52.134;5.052;2023-10-08T07:14:02;14.80;99.90
23116;DHT22;11727;52.134;5.052;2023-10-08T07:16:32;14.80;99.90
23116;DHT22;11727;52.134;5.052;2023-10-08T07:18:58;14.80;99.90
23116;DHT22;11727;52.134;5.052;2023-10-08T07:21:41;14.90;99.90
23116;DHT22;11727;52.134;5.052;2023-10-08T07:24:11;14.90;99.90
23116;DHT22;11727;52.134;5.052;2023-10-08T07:26:42;15.00;99.90
23116;DHT22;11727;52.134;5.052;2023-10-08T07:29:13;15.00;99.90
23116;DHT22;11727;52.134;5.052;2023-10-08T07:31:42;15.00;99.90
23116;DHT22;11727;52.134;5.052;2023-10-08T07:34:13;15.00;99.90
23116;DHT22;11727;52.134;5.052;2023-10-08T07:36:45;15.00;99.90
23116;DHT22;11727;52.134;5.052;2023-10-08T07:39:10;15.00;99.90
23116;DHT22;11727;52.134;5.052;2023-10-08T07:41:55;15.00;99.90
23116;DHT22;11727;52.134;5.052;2023-10-08T07:44:23;15.10;99.90
23116;DHT22;11727;52.134;5.052;2023-10-08T07:46:50;15.10;99.90
23116;DHT22;11727;52.134;5.052;2023-10-08T07:49:17;15.10;99.90
23116;DHT22;11727;52.134;5.052;2023-10-08T07:51:43;15.10;99.90
23116;DHT22;11727;52.134;5.052;2023-10-08T07:54:17;15.20;99.90
23116;DHT22;11727;52.134;5.052;2023-10-08T07:56:45;15.10;99.90
23116;DHT22;11727;52.134;5.052;2023-10-08T07:59:10;15.20;99.90
23116;DHT22;11727;52.134;5.052;2023-10-08T08:01:40;15.20;99.90
23116;DHT22;11727;52.134;5.052;2023-10-08T08:04:11;15.20;99.90
23116;DHT22;11727;52.134;5.052;2023-10-08T08:06:40;15.20;99.90
23116;DHT22;11727;52.134;5.052;2023-10-08T08:09:06;15.20;99.90
23116;DHT22;11727;52.134;5.052;2023-10-08T08:11:43;15.20;99.90
23116;DHT22;11727;52.134;5.052;2023-10-08T08:14:12;15.30;99.90
23116;DHT22;11727;52.134;5.052;2023-10-08T08:16:37;15.30;99.90
23116;DHT22;11727;52.134;5.052;2023-10-08T08:19:03;15.30;99.90
23116;DHT22;11727;52.134;5.052;2023-10-08T08:21:29;15.30;99.90
23116;DHT22;11727;52.134;5.052;2023-10-08T08:23:56;15.40;99.90
23116;DHT22;11727;52.134;5.052;2023-10-08T08:26:31;15.40;99.90
23116;DHT22;11727;52.134;5.052;2023-10-08T08:29:05;15.50;99.90
23116;DHT22;11727;52.134;5.052;2023-10-08T08:31:35;15.50;99.90
23116;DHT22;11727;52.134;5.052;2023-10-08T08:34:01;15.50;99.90
23116;DHT22;11727;52.134;5.052;2023-10-08T08:36:35;15.60;99.90
23116;DHT22;11727;52.134;5.052;2023-10-08T08:39:05;15.60;99.90
23116;DHT22;11727;52.134;5.052;2023-10-08T08:41:37;15.70;99.90
23116;DHT22;11727;52.134;5.052;2023-10-08T08:44:03;15.70;99.90
23116;DHT22;11727;52.134;5.052;2023-10-08T08:46:37;15.70;99.90
23116;DHT22;11727;52.134;5.052;2023-10-08T08:49:07;15.70;99.90
23116;DHT22;11727;52.134;5.052;2023-10-08T08:51:34;15.80;99.90
23116;DHT22;11727;52.134;5.052;2023-10-08T08:54:01;15.80;99.90
23116;DHT22;11727;52.134;5.052;2023-10-08T08:56:33;15.70;99.90
23116;DHT22;11727;52.134;5.052;2023-10-08T08:59:00;15.80;99.90
23116;DHT22;11727;52.134;5.052;2023-10-08T09:01:27;15.80;99.90
23116;DHT22;11727;52.134;5.052;2023-10-08T09:04:01;15.80;99.90
23116;DHT22;11727;52.134;5.052;2023-10-08T09:06:36;15.90;99.90
23116;DHT22;11727;52.134;5.052;2023-10-08T09:09:06;15.90;99.90
23116;DHT22;11727;52.134;5.052;2023-10-08T09:11:52;15.90;99.90
23116;DHT22;11727;52.134;5.052;2023-10-08T09:14:22;15.90;99.90
23116;DHT22;11727;52.134;5.052;2023-10-08T09:16:48;16.00;99.90
23116;DHT22;11727;52.134;5.052;2023-10-08T09:19:15;16.00;99.90
23116;DHT22;11727;52.134;5.052;2023-10-08T09:22:04;16.10;99.90
23116;DHT22;11727;52.134;5.052;2023-10-08T09:24:38;16.10;99.90
23116;DHT22;11727;52.134;5.052;2023-10-08T09:27:04;16.10;99.90
23116;DHT22;11727;52.134;5.052;2023-10-08T09:29:30;16.10;99.90
23116;DHT22;11727;52.134;5.052;2023-10-08T09:31:57;16.20;99.90
23116;DHT22;11727;52.134;5.052;2023-10-08T09:34:29;16.30;99.90
23116;DHT22;11727;52.134;5.052;2023-10-08T09:36:58;16.30;99.90
23116;DHT22;11727;52.134;5.052;2023-10-08T09:39:28;16.30;99.90
23116;DHT22;11727;52.134;5.052;2023-10-08T09:41:55;16.40;99.90
23116;DHT22;11727;52.134;5.052;2023-10-08T09:44:22;16.40;99.90
23116;DHT22;11727;52.134;5.052;2023-10-08T09:47:02;16.40;99.90
23116;DHT22;11727;52.134;5.052;2023-10-08T09:49:31;16.50;99.90
23116;DHT22;11727;52.134;5.052;2023-10-08T09:52:01;16.50;99.90
23116;DHT22;11727;52.134;5.052;2023-10-08T09:54:37;16.50;99.90
23116;DHT22;11727;52.134;5.052;2023-10-08T09:57:07;16.60;99.90
23116;DHT22;11727;52.134;5.052;2023-10-08T09:59:36;16.60;99.90
23116;DHT22;11727;52.134;5.052;2023-10-08T10:02:03;16.70;99.90
23116;DHT22;11727;52.134;5.052;2023-10-08T10:04:30;16.70;99.90
23116;DHT22;11727;52.134;5.052;2023-10-08T10:07:11;16.60;99.90
23116;DHT22;11727;52.134;5.052;2023-10-08T10:09:46;16.60;99.90
23116;DHT22;11727;52.134;5.052;2023-10-08T10:12:19;16.60;99.90
23116;DHT22;11727;52.134;5.052;2023-10-08T10:14:52;16.60;99.90
23116;DHT22;11727;52.134;5.052;2023-10-08T10:17:27;16.60;99.90
23116;DHT22;11727;52.134;5.052;2023-10-08T10:19:59;16.60;99.90
23116;DHT22;11727;52.134;5.052;2023-10-08T10:22:30;16.60;99.90
23116;DHT22;11727;52.134;5.052;2023-10-08T10:25:01;16.70;99.90
23116;DHT22;11727;52.134;5.052;2023-10-08T10:30:30;16.70;99.90
23116;DHT22;11727;52.134;5.052;2023-10-08T10:32:59;16.70;99.90
23116;DHT22;11727;52.134;5.052;2023-10-08T10:35:25;16.80;99.90
23116;DHT22;11727;52.134;5.052;2023-10-08T10:37:53;16.80;99.90
23116;DHT22;11727;52.134;5.052;2023-10-08T10:40:24;16.80;99.90
23116;DHT22;11727;52.134;5.052;2023-10-08T10:43:06;16.90;99.90
23116;DHT22;11727;52.134;5.052;2023-10-08T10:45:32;16.90;99.90
23116;DHT22;11727;52.134;5.052;2023-10-08T10:48:16;17.00;99.90
23116;DHT22;11727;52.134;5.052;2023-10-08T10:50:49;17.00;99.90
23116;DHT22;11727;52.134;5.052;2023-10-08T10:53:40;17.00;99.90
23116;DHT22;11727;52.134;5.052;2023-10-08T10:56:26;17.00;99.90
23116;DHT22;11727;52.134;5.052;2023-10-08T10:59:04;16.90;99.90
23116;DHT22;11727;52.134;5.052;2023-10-08T11:01:50;16.90;99.90
23116;DHT22;11727;52.134;5.052;2023-10-08T11:04:31;16.90;99.90
23116;DHT22;11727;52.134;5.052;2023-10-08T11:06:57;16.90;99.90
23116;DHT22;11727;52.134;5.052;2023-10-08T11:09:26;16.90;99.90
23116;DHT22;11727;52.134;5.052;2023-10-08T11:12:03;16.90;99.90
23116;DHT22;11727;52.134;5.052;2023-10-08T11:14:40;16.90;99.90
23116;DHT22;11727;52.134;5.052;2023-10-08T11:17:17;16.90;99.90
23116;DHT22;11727;52.134;5.052;2023-10-08T11:19:45;17.00;99.90
23116;DHT22;11727;52.134;5.052;2023-10-08T11:22:14;17.00;99.90
23116;DHT22;11727;52.134;5.052;2023-10-08T11:24:45;17.00;99.90
23116;DHT22;11727;52.134;5.052;2023-10-08T11:27:17;17.00;99.90
23116;DHT22;11727;52.134;5.052;2023-10-08T11:29:47;17.10;99.90
23116;DHT22;11727;52.134;5.052;2023-10-08T11:32:15;17.10;99.90
23116;DHT22;11727;52.134;5.052;2023-10-08T11:35:00;17.20;99.90
23116;DHT22;11727;52.134;5.052;2023-10-08T11:37:30;17.20;99.90
23116;DHT22;11727;52.134;5.052;2023-10-08T11:39:59;17.20;99.90
23116;DHT22;11727;52.134;5.052;2023-10-08T11:42:28;17.20;99.90
23116;DHT22;11727;52.134;5.052;2023-10-08T11:45:02;17.30;99.90
23116;DHT22;11727;52.134;5.052;2023-10-08T11:47:46;17.20;99.90
23116;DHT22;11727;52.134;5.052;2023-10-08T11:50:24;17.30;99.90
23116;DHT22;11727;52.134;5.052;2023-10-08T11:53:00;17.30;99.90
23116;DHT22;11727;52.134;5.052;2023-10-08T11:55:33;17.30;99.90
23116;DHT22;11727;52.134;5.052;2023-10-08T11:58:05;17.30;99.90
23116;DHT22;11727;52.134;5.052;2023-10-08T12:00:39;17.30;99.90
23116;DHT22;11727;52.134;5.052;2023-10-08T12:03:18;17.30;99.90
23116;DHT22;11727;52.134;5.052;2023-10-08T12:05:48;17.30;99.90
23116;DHT22;11727;52.134;5.052;2023-10-08T12:08:18;17.40;99.90
23116;DHT22;11727;52.134;5.052;2023-10-08T12:10:46;17.40;99.90
23116;DHT22;11727;52.134;5.052;2023-10-08T12:13:14;17.50;99.90
23116;DHT22;11727;52.134;5.052;2023-10-08T12:15:42;17.60;99.90
23116;DHT22;11727;52.134;5.052;2023-10-08T12:18:10;17.60;99.90
23116;DHT22;11727;52.134;5.052;2023-10-08T12:20:54;17.70;99.90
23116;DHT22;11727;52.134;5.052;2023-10-08T12:23:20;17.80;99.90
23116;DHT22;11727;52.134;5.052;2023-10-08T12:25:53;17.90;99.90
23116;DHT22;11727;52.134;5.052;2023-10-08T12:28:21;17.90;99.90
23116;DHT22;11727;52.134;5.052;2023-10-08T12:30:49;17.90;99.90
23116;DHT22;11727;52.134;5.052;2023-10-08T12:33:21;17.90;99.90
23116;DHT22;11727;52.134;5.052;2023-10-08T12:35:50;17.90;99.90
23116;DHT22;11727;52.134;5.052;2023-10-08T12:38:19;17.90;99.90
23116;DHT22;11727;52.134;5.052;2023-10-08T12:40:51;17.90;99.90
23116;DHT22;11727;52.134;5.052;2023-10-08T12:43:20;18.00;99.90
23116;DHT22;11727;52.134;5.052;2023-10-08T12:45:49;18.00;99.90
23116;DHT22;11727;52.134;5.052;2023-10-08T12:48:20;18.00;99.90
23116;DHT22;11727;52.134;5.052;2023-10-08T12:50:47;18.00;99.90
23116;DHT22;11727;52.134;5.052;2023-10-08T12:53:19;18.00;99.90
23116;DHT22;11727;52.134;5.052;2023-10-08T12:55:49;18.10;99.90
23116;DHT22;11727;52.134;5.052;2023-10-08T12:58:22;18.10;99.90
23116;DHT22;11727;52.134;5.052;2023-10-08T13:00:54;18.20;99.90
23116;DHT22;11727;52.134;5.052;2023-10-08T13:03:26;18.20;99.90
23116;DHT22;11727;52.134;5.052;2023-10-08T13:05:56;18.20;99.90
23116;DHT22;11727;52.134;5.052;2023-10-08T13:08:30;18.20;99.90
23116;DHT22;11727;52.134;5.052;2023-10-08T13:10:57;18.20;99.90
23116;DHT22;11727;52.134;5.052;2023-10-08T13:13:27;18.20;99.90
23116;DHT22;11727;52.134;5.052;2023-10-08T13:15:52;18.20;99.90
23116;DHT22;11727;52.134;5.052;2023-10-08T13:18:24;18.20;99.90
23116;DHT22;11727;52.134;5.052;2023-10-08T13:20:53;18.10;99.90
23116;DHT22;11727;52.134;5.052;2023-10-08T13:23:19;18.10;99.90
23116;DHT22;11727;52.134;5.052;2023-10-08T13:25:51;18.10;99.90
23116;DHT22;11727;52.134;5.052;2023-10-08T13:28:23;18.20;99.90
23116;DHT22;11727;52.134;5.052;2023-10-08T13:30:49;18.20;99.90
23116;DHT22;11727;52.134;5.052;2023-10-08T13:33:21;18.20;99.90
23116;DHT22;11727;52.134;5.052;2023-10-08T13:35:50;18.20;99.90
23116;DHT22;11727;52.134;5.052;2023-10-08T13:38:20;18.20;99.90
23116;DHT22;11727;52.134;5.052;2023-10-08T13:40:46;18.20;99.90
23116;DHT22;11727;52.134;5.052;2023-10-08T13:43:35;18.20;99.90
23116;DHT22;11727;52.134;5.052;2023-10-08T13:46:02;18.20;99.90
23116;DHT22;11727;52.134;5.052;2023-10-08T13:48:31;18.10;99.90
23116;DHT22;11727;52.134;5.052;2023-10-08T13:51:05;18.20;99.90
23116;DHT22;11727;52.134;5.052;2023-10-08T13:53:36;18.20;99.90
23116;DHT22;11727;52.134;5.052;2023-10-08T13:56:03;18.10;99.90
23116;DHT22;11727;52.134;5.052;2023-10-08T13:58:33;18.10;99.90
23116;DHT22;11727;52.134;5.052;2023-10-08T14:01:06;18.10;99.90
23116;DHT22;11727;52.134;5.052;2023-10-08T14:03:50;18.10;99.90
23116;DHT22;11727;52.134;5.052;2023-10-08T14:06:20;18.10;99.90
23116;DHT22;11727;52.134;5.052;2023-10-08T14:08:47;18.00;99.90
23116;DHT22;11727;52.134;5.052;2023-10-08T14:11:23;18.00;99.90
23116;DHT22;11727;52.134;5.052;2023-10-08T14:13:50;18.00;99.90
23116;DHT22;11727;52.134;5.052;2023-10-08T14:16:19;18.00;99.90
23116;DHT22;11727;52.134;5.052;2023-10-08T14:18:52;18.00;99.90
23116;DHT22;11727;52.134;5.052;2023-10-08T14:21:25;18.00;99.90
23116;DHT22;11727;52.134;5.052;2023-10-08T14:24:00;18.00;99.90
23116;DHT22;11727;52.134;5.052;2023-10-08T14:26:29;18.00;99.90
23116;DHT22;11727;52.134;5.052;2023-10-08T14:29:03;18.00;99.90
23116;DHT22;11727;52.134;5.052;2023-10-08T14:31:41;18.00;99.90
23116;DHT22;11727;52.134;5.052;2023-10-08T14:34:10;18.00;99.90
23116;DHT22;11727;52.134;5.052;2023-10-08T14:36:43;18.00;99.90
23116;DHT22;11727;52.134;5.052;2023-10-08T14:39:28;18.00;99.90
23116;DHT22;11727;52.134;5.052;2023-10-08T14:42:13;18.00;99.90
23116;DHT22;11727;52.134;5.052;2023-10-08T14:44:57;18.00;99.90
23116;DHT22;11727;52.134;5.052;2023-10-08T14:47:23;18.00;99.90
23116;DHT22;11727;52.134;5.052;2023-10-08T14:49:49;18.00;99.90
23116;DHT22;11727;52.134;5.052;2023-10-08T14:52:16;18.00;99.90
23116;DHT22;11727;52.134;5.052;2023-10-08T14:54:42;18.00;99.90
23116;DHT22;11727;52.134;5.052;2023-10-08T14:57:09;18.00;99.90
23116;DHT22;11727;52.134;5.052;2023-10-08T14:59:38;18.00;99.90
23116;DHT22;11727;52.134;5.052;2023-10-08T15:02:04;18.00;99.90
23116;DHT22;11727;52.134;5.052;2023-10-08T15:04:30;18.00;99.90
23116;DHT22;11727;52.134;5.052;2023-10-08T15:06:58;18.10;99.90
23116;DHT22;11727;52.134;5.052;2023-10-08T15:09:24;18.10;99.90
23116;DHT22;11727;52.134;5.052;2023-10-08T15:11:53;18.10;99.90
23116;DHT22;11727;52.134;5.052;2023-10-08T15:14:22;18.10;99.90
23116;DHT22;11727;52.134;5.052;2023-10-08T15:16:52;18.10;99.90
23116;DHT22;11727;52.134;5.052;2023-10-08T15:19:21;18.20;99.90
23116;DHT22;11727;52.134;5.052;2023-10-08T15:21:51;18.20;99.90
23116;DHT22;11727;52.134;5.052;2023-10-08T15:24:22;18.20;99.90
23116;DHT22;11727;52.134;5.052;2023-10-08T15:26:49;18.10;99.90
23116;DHT22;11727;52.134;5.052;2023-10-08T15:29:15;18.10;99.90
23116;DHT22;11727;52.134;5.052;2023-10-08T15:31:42;18.10;99.90
23116;DHT22;11727;52.134;5.052;2023-10-08T15:34:08;18.10;99.90
23116;DHT22;11727;52.134;5.052;2023-10-08T15:36:34;18.10;99.90
23116;DHT22;11727;52.134;5.052;2023-10-08T15:39:00;18.10;99.90
23116;DHT22;11727;52.134;5.052;2023-10-08T15:41:25;18.00;99.90
23116;DHT22;11727;52.134;5.052;2023-10-08T15:43:51;18.00;99.90
23116;DHT22;11727;52.134;5.052;2023-10-08T15:46:19;18.00;99.90
23116;DHT22;11727;52.134;5.052;2023-10-08T15:48:45;18.00;99.90
23116;DHT22;11727;52.134;5.052;2023-10-08T15:51:11;18.00;99.90
23116;DHT22;11727;52.134;5.052;2023-10-08T15:53:37;18.00;99.90
23116;DHT22;11727;52.134;5.052;2023-10-08T15:56:02;18.00;99.90
23116;DHT22;11727;52.134;5.052;2023-10-08T15:58:28;18.00;99.90